Time;durP1;ratioP1;P1;durP2;ratioP2;P2;SDS_P1;SDS_P2;PMS_P1;PMS_P2;Temp;Humidity;BMP_temperature;BMP_pressure;BME280_temperature;BME280_humidity;BME280_pressure;Samples;Min_cycle;Max_cycle;Signal;HPM_P1;HPM_P2
2023/03/14 00:02:54;;;;;;;;;;;17.10;56.40;;;15.87;58.61;98914.31;12279349;19;19949;-86
2023/03/14 00:06:56;;;;;;;;;;;17.10;56.60;;;15.86;58.56;98922.38;12280032;19;20367;-87
2023/03/14 00:10:58;;;;;;;;;;;17.00;56.00;;;15.75;58.48;98915.63;12275389;19;20304;-86
2023/03/14 00:15:00;;;;;;;;;;;17.00;56.30;;;15.73;58.36;98916.78;12278451;19;19939;-86
2023/03/14 00:19:02;;;;;;;;;;;16.90;56.30;;;15.77;58.44;98929.47;12279648;19;19923;-86
2023/03/14 00:23:03;;;;;;;;;;;16.90;56.50;;;15.62;58.50;98881.84;12273897;19;19926;-86
2023/03/14 00:27:05;;;;;;;;;;;16.90;56.20;;;15.49;58.59;98850.75;12273845;19;19914;-86
2023/03/14 00:31:08;;;;;;;;;;;16.80;56.50;;;15.62;58.61;98868.69;12272417;19;19923;-86
2023/03/14 00:35:09;;;;;;;;;;;16.80;56.70;;;15.57;58.52;98851.75;12270875;19;20390;-86
2023/03/14 00:39:11;;;;;;;;;;;16.80;56.80;;;15.54;58.54;98841.56;12276165;19;19910;-85
2023/03/14 00:43:12;;;;;;;;;;;16.70;56.60;;;15.58;58.51;98858.66;12269935;19;20289;-86
2023/03/14 00:47:17;;;;;;;;;;;16.70;56.50;;;15.54;58.61;98849.47;12269190;19;21780;-86
2023/03/14 00:51:19;;;;;;;;;;;16.70;56.60;;;15.51;58.36;98855.88;12271334;19;19914;-86
2023/03/14 00:55:21;;;;;;;;;;;16.60;56.70;;;15.43;58.50;98859.28;12272109;19;20241;-86
2023/03/14 00:59:22;;;;;;;;;;;16.60;56.80;;;15.36;58.34;98839.06;12269673;19;19930;-85
2023/03/14 01:03:24;;;;;;;;;;;16.60;56.70;;;15.42;58.56;98852.41;12267472;19;20593;-85
2023/03/14 01:07:26;;;;;;;;;;;16.60;56.80;;;15.37;58.46;98819.69;12266611;19;19919;-87
2023/03/14 01:11:33;;;;;;;;;;;16.50;56.60;;;15.37;58.51;98825.75;12266992;19;19922;-85
2023/03/14 01:15:36;;;;;;;;;;;16.50;56.80;;;15.34;58.62;98823.47;12271338;19;20345;-86
2023/03/14 01:19:37;;;;;;;;;;;16.40;56.90;;;15.22;58.52;98817.66;12269322;19;19914;-85
2023/03/14 01:23:39;;;;;;;;;;;16.40;56.70;;;15.21;58.52;98831.81;12269436;19;19925;-86
2023/03/14 01:27:41;;;;;;;;;;;16.40;56.90;;;15.13;58.57;98860.72;12266132;19;20034;-86
2023/03/14 01:31:43;;;;;;;;;;;16.40;56.90;;;15.09;58.54;98884.84;12264398;19;19960;-86
2023/03/14 01:35:45;;;;;;;;;;;16.30;57.00;;;15.17;58.43;98884.88;12270005;19;20255;-85
2023/03/14 01:39:47;;;;;;;;;;;16.30;56.90;;;15.08;58.58;98867.44;12263945;19;19915;-86
2023/03/14 01:43:50;;;;;;;;;;;16.30;57.10;;;14.85;58.61;98841.72;12264228;19;19922;-86
2023/03/14 01:47:51;;;;;;;;;;;16.30;57.10;;;15.12;58.41;98877.47;12262097;19;19925;-86
2023/03/14 01:52:06;;;;;;;;;;;16.30;57.10;;;15.10;58.58;98886.50;12261394;19;20249;-86
2023/03/14 01:56:11;;;;;;;;;;;16.30;57.10;;;14.88;58.64;98875.59;12264629;19;20237;-87
2023/03/14 02:00:19;;;;;;;;;;;16.30;57.20;;;14.92;58.55;98879.53;12263215;19;19910;-85
2023/03/14 02:04:34;;;;;;;;;;;16.20;57.20;;;14.95;58.73;98888.91;12319010;19;19899;-84
2023/03/14 02:08:37;;;;;;;;;;;16.20;57.20;;;15.01;58.61;98889.09;12318259;19;19910;-85
2023/03/14 02:12:50;;;;;;;;;;;16.20;57.50;;;14.97;58.60;98869.38;12317491;19;19919;-86
2023/03/14 02:17:05;;;;;;;;;;;16.20;57.20;;;15.04;58.53;98875.66;12320752;19;19915;-85
2023/03/14 02:21:42;;;;;;;;;;;16.20;57.20;;;14.99;58.50;98864.78;12313434;19;19923;-84
2023/03/14 02:26:08;;;;;;;;;;;16.10;57.10;;;14.92;58.55;98840.09;12319554;19;19930;-85
2023/03/14 02:30:14;;;;;;;;;;;16.20;57.20;;;14.98;58.59;98855.22;12318546;19;19918;-85
2023/03/14 02:34:17;;;;;;;;;;;16.10;57.20;;;14.92;58.68;98845.34;12319302;19;19998;-85
2023/03/14 02:38:40;;;;;;;;;;;16.10;57.20;;;14.94;58.77;98853.91;12318479;19;19973;-85
2023/03/14 02:42:42;;;;;;;;;;;16.00;57.20;;;14.83;58.70;98833.19;12313334;19;19923;-85
2023/03/14 02:46:44;;;;;;;;;;;16.10;57.30;;;14.88;58.50;98846.69;12317325;19;19922;-85
2023/03/14 02:50:48;;;;;;;;;;;16.00;57.20;;;14.88;58.46;98836.16;12315741;19;19919;-85
2023/03/14 02:54:49;;;;;;;;;;;16.00;57.20;;;14.80;58.38;98823.81;12317740;19;19930;-85
2023/03/14 02:58:52;;;;;;;;;;;16.00;57.20;;;14.73;58.53;98801.78;12316978;19;19915;-85
2023/03/14 03:03:20;;;;;;;;;;;16.00;57.30;;;14.76;58.68;98801.44;12312135;19;20343;-84
2023/03/14 03:07:23;;;;;;;;;;;15.90;57.20;;;14.78;58.74;98809.19;12315257;19;20712;-85
2023/03/14 03:11:25;;;;;;;;;;;15.90;57.20;;;14.71;58.61;98787.13;12311593;19;20274;-84
2023/03/14 03:15:26;;;;;;;;;;;15.90;57.20;;;14.70;58.60;98777.63;12274705;19;19910;-84
2023/03/14 03:19:28;;;;;;;;;;;15.90;57.30;;;14.59;58.62;98742.78;12266042;19;19922;-84
2023/03/14 03:23:30;;;;;;;;;;;15.90;57.30;;;14.49;58.72;98714.97;12262342;19;19907;-85
2023/03/14 03:27:34;;;;;;;;;;;15.90;57.30;;;14.63;58.64;98716.19;12266606;19;19919;-84
2023/03/14 03:31:37;;;;;;;;;;;15.90;57.30;;;14.68;58.89;98745.44;12262169;19;20255;-85
2023/03/14 03:35:44;;;;;;;;;;;15.80;57.20;;;14.59;58.62;98755.91;12260568;19;20341;-85
2023/03/14 03:39:46;;;;;;;;;;;15.80;57.30;;;14.63;58.68;98771.34;12263295;19;20445;-85
2023/03/14 03:43:48;;;;;;;;;;;15.80;57.20;;;14.53;58.76;98748.69;12261134;19;19915;-85
2023/03/14 03:47:51;;;;;;;;;;;15.70;57.20;;;14.55;58.68;98765.06;12263884;19;19923;-85
2023/03/14 03:51:53;;;;;;;;;;;15.80;57.20;;;14.51;58.62;98760.28;12263956;19;19923;-84
2023/03/14 03:55:55;;;;;;;;;;;15.80;57.20;;;14.59;58.67;98774.31;12262586;19;20315;-85
2023/03/14 03:59:58;;;;;;;;;;;15.80;57.20;;;14.36;58.76;98736.41;12261604;19;19922;-85
2023/03/14 04:03:59;;;;;;;;;;;15.70;57.00;;;14.46;58.64;98742.38;12256674;19;19919;-85
2023/03/14 04:08:02;;;;;;;;;;;15.70;57.20;;;14.51;58.75;98760.28;12260458;19;19923;-85
2023/03/14 04:12:05;;;;;;;;;;;15.70;57.20;;;14.53;58.65;98769.69;12259709;19;19922;-85
2023/03/14 04:16:31;;;;;;;;;;;15.70;57.20;;;14.55;58.67;98754.56;12260658;19;19927;-85
2023/03/14 04:20:39;;;;;;;;;;;15.70;57.10;;;14.39;58.78;98747.44;12259055;19;19919;-84
2023/03/14 04:24:41;;;;;;;;;;;15.70;57.10;;;14.52;58.80;98767.16;12256903;19;19934;-85
2023/03/14 04:28:43;;;;;;;;;;;15.70;57.00;;;14.50;58.63;98756.84;12260907;19;19919;-85
2023/03/14 04:32:45;;;;;;;;;;;15.60;57.00;;;14.37;58.55;98719.69;12256418;19;20262;-85
2023/03/14 04:36:47;;;;;;;;;;;15.60;57.00;;;14.40;58.64;98732.50;12259574;19;19918;-85
2023/03/14 04:40:53;;;;;;;;;;;15.60;57.00;;;14.43;58.83;98726.94;12256860;19;20259;-85
2023/03/14 04:44:58;;;;;;;;;;;15.60;57.00;;;14.34;58.74;98712.97;12256979;19;20680;-86
2023/03/14 04:49:02;;;;;;;;;;;15.60;56.90;;;14.43;58.70;98728.75;12255564;19;20411;-85
2023/03/14 04:53:05;;;;;;;;;;;15.60;56.80;;;14.20;58.57;98689.91;12253862;19;19926;-85
2023/03/14 04:57:07;;;;;;;;;;;15.60;56.90;;;14.42;58.72;98713.94;12252739;19;19954;-85
2023/03/14 05:01:11;;;;;;;;;;;15.60;56.80;;;14.33;58.71;98689.47;12252209;19;19919;-85
2023/03/14 05:05:22;;;;;;;;;;;15.60;56.90;;;14.28;58.79;98674.19;12254887;19;19948;-85
2023/03/14 05:09:47;;;;;;;;;;;15.60;56.90;;;14.34;58.71;98684.06;12254070;19;19922;-84
2023/03/14 05:14:17;;;;;;;;;;;15.60;56.80;;;14.33;58.60;98707.84;12253419;19;19936;-84
2023/03/14 05:18:34;;;;;;;;;;;15.60;56.90;;;14.32;58.68;98698.34;12252367;19;20336;-84
2023/03/14 05:22:45;;;;;;;;;;;15.50;56.70;;;14.24;58.67;98683.38;12252419;19;19927;-85
2023/03/14 05:26:58;;;;;;;;;;;15.50;56.80;;;14.31;58.74;98675.66;12256945;19;19950;-85
2023/03/14 05:31:18;;;;;;;;;;;15.50;56.50;;;14.19;58.61;98666.47;12252878;19;19919;-84
2023/03/14 05:35:43;;;;;;;;;;;15.50;56.70;;;14.30;58.70;98679.28;12256361;19;19918;-84
2023/03/14 05:40:06;;;;;;;;;;;15.50;56.60;;;14.23;58.53;98676.50;12261082;19;19911;-85
2023/03/14 05:44:22;;;;;;;;;;;15.40;56.60;;;14.12;58.57;98664.47;12254496;19;20277;-85
2023/03/14 05:48:37;;;;;;;;;;;15.40;56.40;;;14.12;58.65;98668.88;12257750;19;19923;-86
2023/03/14 05:52:42;;;;;;;;;;;15.40;56.40;;;14.20;58.73;98691.72;12256202;19;20307;-85
2023/03/14 05:56:55;;;;;;;;;;;15.40;56.40;;;14.09;58.58;98680.50;12258814;19;19953;-85
2023/03/14 06:01:06;;;;;;;;;;;15.40;56.60;;;14.18;58.71;98691.88;12260304;19;20360;-85
2023/03/14 06:05:22;;;;;;;;;;;15.40;56.30;;;13.99;58.52;98655.38;12255352;19;19911;-85
2023/03/14 06:09:26;;;;;;;;;;;15.40;56.20;;;14.15;58.75;98677.28;12254441;19;19907;-85
2023/03/14 06:13:31;;;;;;;;;;;15.40;56.10;;;13.93;58.63;98630.59;12252930;19;19930;-84
2023/03/14 06:17:33;;;;;;;;;;;15.40;56.30;;;14.12;58.71;98677.59;12255372;19;20530;-84
2023/03/14 06:21:38;;;;;;;;;;;15.30;55.80;;;14.13;58.58;98676.59;12252924;19;19919;-84
2023/03/14 06:25:40;;;;;;;;;;;15.40;56.10;;;13.89;58.59;98655.50;12254696;19;19915;-84
2023/03/14 06:29:42;;;;;;;;;;;15.40;56.20;;;14.20;58.56;98703.03;12254714;19;19942;-85
2023/03/14 06:33:44;;;;;;;;;;;15.40;56.20;;;14.08;58.54;98676.25;12249121;19;19919;-87
2023/03/14 06:37:45;;;;;;;;;;;15.40;56.10;;;14.15;58.67;98695.66;12254468;19;19930;-85
2023/03/14 06:41:48;;;;;;;;;;;15.40;56.30;;;14.08;58.47;98691.19;12253440;19;19951;-85
2023/03/14 06:45:50;;;;;;;;;;;15.40;55.80;;;14.12;58.53;98685.47;12257287;19;19986;-85
2023/03/14 06:49:51;;;;;;;;;;;15.40;56.10;;;14.22;58.56;98692.38;12261924;19;20276;-84
2023/03/14 06:53:53;;;;;;;;;;;15.40;56.20;;;14.22;58.52;98703.72;12267776;19;20329;-85
2023/03/14 06:57:58;;;;;;;;;;;15.40;55.80;;;14.21;58.55;98703.88;12266782;19;20306;-87
2023/03/14 07:02:00;;;;;;;;;;;15.40;56.00;;;14.20;58.42;98723.22;12260966;19;19919;-86
2023/03/14 07:06:02;;;;;;;;;;;15.50;56.10;;;14.19;58.62;98725.03;12265162;19;19923;-87
2023/03/14 07:10:04;;;;;;;;;;;15.50;55.90;;;14.27;58.49;98738.19;12270059;19;19915;-84
2023/03/14 07:14:06;;;;;;;;;;;15.50;56.00;;;14.23;58.39;98725.53;12269929;19;19922;-85
2023/03/14 07:18:08;;;;;;;;;;;15.50;56.20;;;14.11;58.46;98706.63;12286900;19;19918;-87
2023/03/14 07:22:10;;;;;;;;;;;15.60;56.10;;;14.17;58.38;98725.16;12283960;19;20033;-86
2023/03/14 07:26:11;;;;;;;;;;;15.60;56.20;;;14.43;58.63;98750.56;12277199;19;19932;-87
2023/03/14 07:30:19;;;;;;;;;;;15.60;56.20;;;14.36;58.57;98736.41;12283384;19;19982;-86
2023/03/14 07:34:21;;;;;;;;;;;15.70;56.30;;;14.16;58.45;98705.16;12278513;19;19951;-87
2023/03/14 07:38:24;;;;;;;;;;;15.70;56.10;;;14.49;58.59;98762.25;12282958;19;19943;-85
2023/03/14 07:42:43;;;;;;;;;;;15.70;56.10;;;14.34;58.58;98725.28;12305587;19;19911;-86
2023/03/14 07:47:05;;;;;;;;;;;15.70;55.80;;;14.26;58.39;98714.72;12274898;19;19915;-86
2023/03/14 07:51:07;;;;;;;;;;;15.70;55.50;;;14.51;58.50;98757.66;12274705;19;19919;-87
2023/03/14 07:55:10;;;;;;;;;;;15.70;55.60;;;14.54;58.42;98760.81;12282373;19;19933;-86
2023/03/14 07:59:12;;;;;;;;;;;15.80;55.80;;;14.58;58.41;98763.94;12286260;19;19915;-86
2023/03/14 08:03:14;;;;;;;;;;;15.80;55.80;;;14.56;58.44;98752.78;12282311;19;19919;-86
2023/03/14 08:07:15;;;;;;;;;;;15.80;56.00;;;14.49;58.58;98726.28;12285237;19;19927;-86
2023/03/14 08:11:17;;;;;;;;;;;15.80;55.90;;;14.61;58.37;98726.88;12280884;19;19921;-86
2023/03/14 08:15:18;;;;;;;;;;;15.90;56.00;;;14.50;58.47;98700.84;12277955;19;19922;-85
2023/03/14 08:19:20;;;;;;;;;;;15.90;55.80;;;14.80;58.49;98741.53;12278157;19;19931;-85
2023/03/14 08:23:22;;;;;;;;;;;16.00;56.00;;;14.83;58.47;98733.31;12266441;19;19911;-86
2023/03/14 08:27:24;;;;;;;;;;;16.10;55.70;;;14.80;58.57;98702.94;12271463;19;19931;-85
2023/03/14 08:31:25;;;;;;;;;;;16.10;56.00;;;14.89;58.68;98730.03;12267604;19;19933;-85
2023/03/14 08:35:27;;;;;;;;;;;16.10;55.50;;;14.77;58.50;98710.31;12264249;19;20252;-85
2023/03/14 08:39:28;;;;;;;;;;;16.20;56.00;;;14.97;58.56;98748.44;12272511;19;19942;-85
2023/03/14 08:43:30;;;;;;;;;;;16.30;55.70;;;14.97;58.58;98727.44;12268925;19;19950;-84
2023/03/14 08:47:32;;;;;;;;;;;16.30;55.70;;;15.05;58.44;98731.88;12276428;19;19936;-84
2023/03/14 08:51:34;;;;;;;;;;;16.30;55.80;;;15.05;58.54;98737.13;12271527;19;20252;-85
2023/03/14 08:55:36;;;;;;;;;;;16.30;56.00;;;15.09;58.44;98746.31;12268011;19;19915;-85
2023/03/14 08:59:37;;;;;;;;;;;16.30;55.70;;;15.09;58.47;98737.63;12268783;19;19915;-86
2023/03/14 09:03:39;;;;;;;;;;;16.40;55.80;;;15.02;58.29;98724.31;12268309;19;20344;-85
2023/03/14 09:07:41;;;;;;;;;;;16.40;54.70;;;14.84;58.50;98692.91;12272516;19;19934;-86
2023/03/14 09:11:43;;;;;;;;;;;16.40;55.00;;;15.16;58.46;98733.38;12264162;19;19923;-85
2023/03/14 09:15:44;;;;;;;;;;;16.40;55.00;;;15.14;58.39;98730.06;12265625;19;20449;-84
2023/03/14 09:19:45;;;;;;;;;;;16.50;55.50;;;15.14;58.32;98730.06;12254767;19;20336;-84
2023/03/14 09:23:47;;;;;;;;;;;16.50;55.50;;;15.17;58.37;98727.13;12246365;19;19931;-85
2023/03/14 09:27:48;;;;;;;;;;;16.50;55.00;;;15.31;58.26;98741.41;12257109;19;19918;-84
2023/03/14 09:31:50;;;;;;;;;;;16.60;55.60;;;15.30;58.16;98722.19;12224226;19;19994;-85
2023/03/14 09:35:51;;;;;;;;;;;16.60;55.20;;;15.13;58.28;98686.38;12258492;19;19955;-85
2023/03/14 09:39:53;;;;;;;;;;;16.60;55.20;;;15.52;58.23;98733.03;12258828;19;19918;-85
2023/03/14 09:44:02;;;;;;;;;;;16.70;55.10;;;15.62;58.49;98728.44;12256419;19;19919;-85
2023/03/14 09:48:04;;;;;;;;;;;16.80;55.30;;;15.81;58.34;98743.06;12258299;19;19939;-85
2023/03/14 09:52:23;;;;;;;;;;;17.00;54.20;;;15.89;58.41;98728.06;12254678;19;19923;-86
2023/03/14 09:56:31;;;;;;;;;;;17.10;54.10;;;16.00;58.37;98721.63;12253886;19;19923;-86
2023/03/14 10:00:32;;;;;;;;;;;17.30;55.10;;;16.14;58.54;98722.75;12255367;19;19919;-86
2023/03/14 10:04:39;;;;;;;;;;;17.40;54.50;;;16.29;58.25;98715.78;12252469;19;19915;-87
2023/03/14 10:08:41;;;;;;;;;;;17.60;51.90;;;16.36;58.05;98732.56;12255534;19;20377;-86
2023/03/14 10:12:45;;;;;;;;;;;17.70;54.60;;;16.32;57.86;98715.44;12254954;19;20397;-87
2023/03/14 10:16:47;;;;;;;;;;;17.70;53.00;;;16.45;58.04;98737.78;12254845;19;19935;-85
2023/03/14 10:20:49;;;;;;;;;;;17.80;54.20;;;16.46;57.89;98734.97;12256733;19;20404;-85
2023/03/14 10:24:54;;;;;;;;;;;17.80;53.30;;;16.21;57.79;98702.66;12261641;19;19914;-85
2023/03/14 10:29:08;;;;;;;;;;;17.80;53.70;;;16.43;57.99;98745.03;12268104;19;20301;-86
2023/03/14 10:33:23;;;;;;;;;;;17.80;53.90;;;16.45;57.83;98750.97;12264120;19;19926;-85
2023/03/14 10:37:27;;;;;;;;;;;17.70;54.00;;;16.43;57.69;98745.84;12268661;19;19971;-85
2023/03/14 10:41:31;;;;;;;;;;;17.70;54.40;;;16.36;57.84;98726.44;12266326;19;19919;-85
2023/03/14 10:45:43;;;;;;;;;;;17.80;53.80;;;16.42;57.67;98740.75;12269001;19;19926;-84
2023/03/14 10:49:45;;;;;;;;;;;17.70;53.80;;;16.42;57.75;98743.38;12268432;19;19915;-85
2023/03/14 10:53:47;;;;;;;;;;;17.70;53.80;;;16.41;57.77;98744.38;12263924;19;19919;-85
2023/03/14 10:57:49;;;;;;;;;;;17.70;53.80;;;16.32;57.67;98731.25;12272442;19;19919;-84
2023/03/14 11:02:07;;;;;;;;;;;17.70;54.20;;;16.41;57.87;98737.28;12266917;19;19907;-84
2023/03/14 11:06:25;;;;;;;;;;;17.70;54.10;;;16.19;57.93;98730.97;12270504;19;19946;-84
2023/03/14 11:10:42;;;;;;;;;;;17.70;53.00;;;16.34;57.59;98750.34;12265690;19;19919;-84
2023/03/14 11:14:51;;;;;;;;;;;17.60;52.00;;;16.36;57.51;98743.09;12268836;19;20365;-85
2023/03/14 11:19:02;;;;;;;;;;;17.60;51.80;;;16.35;57.72;98738.78;12268817;19;19922;-85
2023/03/14 11:23:20;;;;;;;;;;;17.60;53.40;;;16.25;57.24;98732.91;12266629;19;19911;-84
2023/03/14 11:27:26;;;;;;;;;;;17.50;53.80;;;16.15;57.25;98721.78;12270098;19;20288;-84
2023/03/14 11:31:31;;;;;;;;;;;17.50;53.30;;;16.05;57.49;98715.88;12266691;19;20290;-86
2023/03/14 11:35:40;;;;;;;;;;;17.50;53.70;;;16.23;57.61;98747.22;12262541;19;19934;-86
2023/03/14 11:39:46;;;;;;;;;;;17.50;53.80;;;15.93;57.40;98704.88;12268264;19;20507;-86
2023/03/14 11:43:53;;;;;;;;;;;17.50;52.90;;;16.22;57.33;98741.16;12260635;19;19978;-86
2023/03/14 11:48:26;;;;;;;;;;;17.40;53.00;;;16.22;57.46;98746.41;12266843;19;19923;-86
2023/03/14 11:52:58;;;;;;;;;;;17.40;54.00;;;16.12;57.41;98736.09;12263393;19;20278;-86
2023/03/14 11:57:12;;;;;;;;;;;17.40;51.80;;;16.22;57.25;98745.59;12266152;19;19923;-86
2023/03/14 12:01:17;;;;;;;;;;;17.40;53.40;;;16.18;57.24;98737.22;12263021;19;20325;-86
2023/03/14 12:05:39;;;;;;;;;;;17.40;52.90;;;16.22;57.10;98730.63;12266359;19;19918;-86
2023/03/14 12:09:41;;;;;;;;;;;17.40;53.60;;;16.13;57.12;98727.19;12264895;19;19974;-88
2023/03/14 12:13:50;;;;;;;;;;;17.40;53.30;;;16.14;57.16;98718.28;12258077;19;19919;-86
2023/03/14 12:17:55;;;;;;;;;;;17.30;51.90;;;16.11;56.91;98720.44;12262813;19;19911;-91
2023/03/14 12:22:06;;;;;;;;;;;17.30;52.80;;;16.03;57.21;98699.41;12261649;19;19915;-86
2023/03/14 12:26:10;;;;;;;;;;;17.30;53.70;;;16.16;57.16;98715.50;12258898;19;19947;-86
2023/03/14 12:30:27;;;;;;;;;;;17.30;53.70;;;16.08;57.15;98691.84;12261588;19;19932;-86
2023/03/14 12:34:31;;;;;;;;;;;17.30;53.80;;;16.09;57.07;98686.41;12260476;19;20415;-85
2023/03/14 12:38:35;;;;;;;;;;;17.40;54.10;;;16.23;57.14;98700.66;12258069;19;20341;-86
2023/03/14 12:42:44;;;;;;;;;;;17.40;53.40;;;16.24;56.97;98704.94;12257148;19;19915;-86
2023/03/14 12:46:46;;;;;;;;;;;17.40;53.80;;;16.19;56.94;98688.81;12260573;19;19999;-85
2023/03/14 12:51:00;;;;;;;;;;;17.40;53.00;;;16.15;57.02;98680.44;12255771;19;19918;-86
2023/03/14 12:55:05;;;;;;;;;;;17.40;53.70;;;16.24;56.91;98697.03;12254518;19;20466;-85
2023/03/14 12:59:25;;;;;;;;;;;17.40;52.70;;;16.29;57.08;98697.34;12257610;19;19934;-86
2023/03/14 13:03:43;;;;;;;;;;;17.50;53.30;;;16.21;57.02;98664.97;12255958;19;20015;-86
2023/03/14 13:07:48;;;;;;;;;;;17.40;53.00;;;16.31;56.92;98676.94;12256631;19;19919;-85
2023/03/14 13:11:49;;;;;;;;;;;17.50;53.00;;;16.35;56.92;98683.47;12254033;19;19936;-85
2023/03/14 13:16:00;;;;;;;;;;;17.50;53.10;;;16.27;57.05;98665.09;12254560;19;19918;-85
2023/03/14 13:20:18;;;;;;;;;;;17.60;53.70;;;16.37;56.97;98665.69;12257973;19;19986;-86
2023/03/14 13:24:27;;;;;;;;;;;17.60;54.00;;;16.35;56.87;98651.88;12250927;19;19922;-86
2023/03/14 13:28:30;;;;;;;;;;;17.60;53.20;;;16.37;56.97;98647.25;12252764;19;19974;-85
2023/03/14 13:32:31;;;;;;;;;;;17.60;53.30;;;16.27;56.93;98628.22;12248430;19;19922;-86
2023/03/14 13:36:35;;;;;;;;;;;17.60;53.00;;;16.41;56.75;98652.19;12251954;19;20297;-86
2023/03/14 13:40:37;;;;;;;;;;;17.60;52.30;;;16.44;56.68;98670.25;12251394;19;19942;-86
2023/03/14 13:44:39;;;;;;;;;;;17.70;53.40;;;16.42;56.76;98678.34;12247263;19;19927;-85
2023/03/14 13:49:05;;;;;;;;;;;17.70;53.50;;;16.28;56.81;98672.00;12251033;19;19914;-86
2023/03/14 13:53:11;;;;;;;;;;;17.70;53.90;;;16.30;56.65;98691.06;12250747;19;19922;-85
2023/03/14 13:57:12;;;;;;;;;;;17.60;54.10;;;16.05;56.69;98660.59;12255414;19;19925;-88
2023/03/14 14:01:25;;;;;;;;;;;17.50;54.40;;;16.09;56.64;98672.41;12256282;19;20661;-86
2023/03/14 14:05:29;;;;;;;;;;;17.40;54.70;;;16.09;57.02;98669.75;12254595;19;19950;-84
2023/03/14 14:09:38;;;;;;;;;;;17.20;54.80;;;16.08;56.82;98662.88;12258112;19;19911;-85
2023/03/14 14:13:39;;;;;;;;;;;17.20;55.10;;;16.02;56.75;98653.03;12253102;19;20329;-85
2023/03/14 14:18:00;;;;;;;;;;;17.20;55.20;;;15.84;56.64;98617.22;12252179;19;19922;-85
2023/03/14 14:22:02;;;;;;;;;;;17.20;55.30;;;16.03;56.87;98649.41;12251154;19;19916;-85
2023/03/14 14:26:05;;;;;;;;;;;17.20;55.40;;;16.03;56.61;98638.88;12251401;19;19915;-85
2023/03/14 14:30:30;;;;;;;;;;;17.20;55.50;;;16.19;56.79;98659.84;12256330;19;19907;-84
2023/03/14 14:34:40;;;;;;;;;;;17.30;55.60;;;16.17;56.74;98647.84;12249216;19;20022;-85
2023/03/14 14:39:17;;;;;;;;;;;17.30;55.60;;;16.18;56.67;98646.88;12241521;19;20269;-85
2023/03/14 14:43:28;;;;;;;;;;;17.30;55.60;;;16.12;56.77;98649.19;12242388;19;20617;-85
2023/03/14 14:47:29;;;;;;;;;;;17.30;55.20;;;16.14;56.71;98649.00;12256804;19;19919;-85
2023/03/14 14:51:33;;;;;;;;;;;17.30;55.00;;;16.17;56.59;98648.66;12252952;19;19935;-86
2023/03/14 14:55:40;;;;;;;;;;;17.30;55.20;;;16.08;56.80;98637.34;12258678;19;19923;-85
2023/03/14 14:59:43;;;;;;;;;;;17.30;55.10;;;15.99;56.84;98609.44;12258243;19;19926;-85
2023/03/14 15:03:51;;;;;;;;;;;17.30;54.70;;;16.04;56.85;98619.44;12253985;19;19982;-84
2023/03/14 15:07:53;;;;;;;;;;;17.30;54.40;;;16.05;56.64;98610.56;12255736;19;19919;-84
2023/03/14 15:11:54;;;;;;;;;;;17.30;54.70;;;16.09;56.76;98617.94;12261131;19;19925;-85
2023/03/14 15:15:56;;;;;;;;;;;17.40;54.70;;;16.11;56.77;98615.13;12269382;19;19918;-86
2023/03/14 15:19:58;;;;;;;;;;;17.30;54.60;;;16.14;56.68;98625.31;12272267;19;19919;-85
2023/03/14 15:23:59;;;;;;;;;;;17.30;54.20;;;16.14;56.73;98630.56;12270671;19;19928;-85
2023/03/14 15:28:01;;;;;;;;;;;17.30;53.70;;;16.03;56.49;98623.06;12271194;19;19943;-85
2023/03/14 15:32:02;;;;;;;;;;;17.30;54.40;;;16.10;56.74;98643.28;12263376;19;19943;-85
2023/03/14 15:36:06;;;;;;;;;;;17.30;53.50;;;16.11;56.64;98657.25;12261683;19;20007;-85
2023/03/14 15:40:13;;;;;;;;;;;17.20;54.50;;;16.05;56.67;98650.06;12261469;19;19998;-85
2023/03/14 15:44:14;;;;;;;;;;;17.20;53.90;;;15.98;56.51;98764.91;12261593;19;19942;-84
2023/03/14 15:48:18;;;;;;;;;;;17.20;54.40;;;15.65;56.37;98796.50;12266137;19;19923;-83
2023/03/14 15:52:19;;;;;;;;;;;17.10;54.00;;;15.31;56.38;98884.28;12263712;19;19982;-83
2023/03/14 15:56:24;;;;;;;;;;;16.80;53.60;;;14.80;56.14;98928.09;12266312;19;19914;-84
2023/03/14 16:00:26;;;;;;;;;;;16.40;52.30;;;14.23;56.17;98946.06;12263995;19;19919;-84
2023/03/14 16:04:28;;;;;;;;;;;15.90;51.60;;;13.42;56.20;98939.03;12260222;19;19926;-84
2023/03/14 16:08:29;;;;;;;;;;;15.40;51.00;;;13.19;56.32;99019.84;12264505;19;19911;-83
2023/03/14 16:12:32;;;;;;;;;;;14.90;50.60;;;12.64;56.28;99033.63;12259541;19;20341;-84
2023/03/14 16:16:33;;;;;;;;;;;14.40;51.00;;;12.11;56.34;99058.41;12261740;19;19919;-84
2023/03/14 16:20:34;;;;;;;;;;;13.80;50.90;;;11.63;56.57;99059.09;12263352;19;20410;-84
2023/03/14 16:24:36;;;;;;;;;;;13.40;51.10;;;11.28;56.33;99115.19;12264202;19;19950;-84
2023/03/14 16:28:38;;;;;;;;;;;12.90;51.00;;;10.96;56.45;99157.06;12264477;19;20388;-84
2023/03/14 16:32:39;;;;;;;;;;;12.50;51.50;;;10.55;56.27;99171.69;12261356;19;19915;-84
2023/03/14 16:36:41;;;;;;;;;;;12.10;51.60;;;10.29;56.35;99193.81;12259530;19;19915;-84
2023/03/14 16:40:42;;;;;;;;;;;11.70;51.90;;;9.87;56.30;99223.06;12262346;19;19923;-85
2023/03/14 16:44:43;;;;;;;;;;;11.40;51.70;;;9.62;56.27;99247.56;12255646;19;19907;-84
2023/03/14 16:48:45;;;;;;;;;;;11.00;52.00;;;9.38;56.58;99273.66;12260526;19;19922;-84
2023/03/14 16:52:48;;;;;;;;;;;10.80;52.30;;;9.21;56.40;99294.94;12276746;19;19929;-85
2023/03/14 16:56:49;;;;;;;;;;;10.50;52.60;;;9.01;56.32;99304.97;12287314;19;19919;-84
2023/03/14 17:00:51;;;;;;;;;;;10.30;52.60;;;8.73;56.40;99316.53;12285196;19;19931;-84
2023/03/14 17:04:53;;;;;;;;;;;10.00;52.60;;;8.66;56.36;99361.31;12288719;19;19930;-84
2023/03/14 17:08:55;;;;;;;;;;;9.90;52.90;;;8.62;56.33;99397.94;12278551;19;19915;-85
2023/03/14 17:12:56;;;;;;;;;;;9.70;53.00;;;8.32;56.05;99406.03;12276573;19;19934;-84
2023/03/14 17:16:58;;;;;;;;;;;9.50;53.10;;;8.22;56.26;99423.19;12276741;19;19919;-85
2023/03/14 17:20:59;;;;;;;;;;;9.40;53.20;;;8.25;56.34;99448.97;12273725;19;19923;-84
2023/03/14 17:25:01;;;;;;;;;;;9.30;53.40;;;8.09;56.24;99471.72;12269454;19;19911;-83
2023/03/14 17:29:02;;;;;;;;;;;9.20;53.50;;;8.12;56.17;99497.53;12267894;19;19926;-84
2023/03/14 17:33:04;;;;;;;;;;;9.10;53.70;;;7.80;56.43;99471.81;12265051;19;19926;-84
2023/03/14 17:37:06;;;;;;;;;;;9.10;53.70;;;7.78;56.33;99504.03;12271090;19;19911;-84
2023/03/14 17:41:12;;;;;;;;;;;9.00;53.80;;;7.66;56.26;99503.06;12267827;19;19926;-84
2023/03/14 17:45:13;;;;;;;;;;;8.90;53.90;;;7.77;56.40;99534.41;12266143;19;19911;-84
2023/03/14 17:49:14;;;;;;;;;;;8.90;53.90;;;7.82;56.36;99562.69;12263975;19;20321;-84
2023/03/14 17:53:16;;;;;;;;;;;8.90;54.10;;;7.64;56.58;99562.06;12263996;19;19918;-85
2023/03/14 17:57:17;;;;;;;;;;;8.80;54.10;;;7.59;56.37;99554.59;12266231;19;19934;-84
2023/03/14 18:01:19;;;;;;;;;;;8.80;54.20;;;7.72;56.36;99585.81;12262674;19;19926;-85
2023/03/14 18:05:22;;;;;;;;;;;8.80;54.20;;;7.70;56.43;99611.09;12262674;19;19942;-84
2023/03/14 18:09:23;;;;;;;;;;;8.80;54.30;;;7.66;56.73;99630.38;12266130;19;19926;-84
2023/03/14 18:13:24;;;;;;;;;;;8.80;54.30;;;7.65;56.71;99662.50;12261690;19;19944;-84
2023/03/14 18:17:26;;;;;;;;;;;8.70;54.30;;;7.57;56.56;99659.50;12264759;19;19954;-84
2023/03/14 18:21:29;;;;;;;;;;;8.70;54.40;;;7.49;56.63;99667.75;12262233;19;19926;-84
2023/03/14 18:25:30;;;;;;;;;;;8.70;54.40;;;7.38;56.64;99688.34;12259906;19;19926;-85
2023/03/14 18:29:33;;;;;;;;;;;8.70;54.40;;;7.52;56.87;99706.53;12259090;19;19923;-84
2023/03/14 18:33:36;;;;;;;;;;;8.60;54.40;;;7.53;56.64;99698.66;12258595;19;19922;-84
2023/03/14 18:37:37;;;;;;;;;;;8.70;54.60;;;7.48;56.60;99703.28;12261283;19;19923;-85
2023/03/14 18:41:39;;;;;;;;;;;8.60;54.90;;;7.45;56.68;99715.59;12259052;19;19923;-84